Time;durP1;ratioP1;P1;durP2;ratioP2;P2;SDS_P1;SDS_P2;PMS_P1;PMS_P2;Temp;Humidity;BMP_temperature;BMP_pressure;BME280_temperature;BME280_humidity;BME280_pressure;Samples;Min_cycle;Max_cycle;Signal;HPM_P1;HPM_P2
2023/05/01 00:00:11;;;;;;;4.65;1.75;;;7.40;99.90;;;;;;5075267;28;19927;-42
2023/05/01 00:02:37;;;;;;;6.93;2.60;;;7.40;99.90;;;;;;5074754;28;20548;-42
2023/05/01 00:05:03;;;;;;;5.90;2.57;;;7.40;99.90;;;;;;5057194;28;20049;-42
2023/05/01 00:07:30;;;;;;;5.83;2.10;;;7.40;99.90;;;;;;5074752;28;20044;-41
2023/05/01 00:09:58;;;;;;;4.57;1.98;;;7.30;99.90;;;;;;5074440;28;20063;-42
2023/05/01 00:12:24;;;;;;;5.57;2.20;;;7.30;99.90;;;;;;5073554;28;20052;-42
2023/05/01 00:14:52;;;;;;;5.10;2.03;;;7.30;99.90;;;;;;5074605;28;20036;-42
2023/05/01 00:17:18;;;;;;;6.22;1.88;;;7.30;99.90;;;;;;5073661;28;20052;-42
2023/05/01 00:19:43;;;;;;;4.50;2.10;;;7.30;99.90;;;;;;5074519;28;20558;-42
2023/05/01 00:22:09;;;;;;;5.40;2.23;;;7.30;99.90;;;;;;5074353;28;20036;-41
2023/05/01 00:24:35;;;;;;;4.70;2.00;;;7.30;99.90;;;;;;5074417;28;20048;-41
2023/05/01 00:27:00;;;;;;;5.17;1.97;;;7.30;99.90;;;;;;5073108;28;20084;-42
2023/05/01 00:29:26;;;;;;;4.60;2.10;;;7.20;99.90;;;;;;5074139;28;20049;-42
2023/05/01 00:31:54;;;;;;;5.50;2.10;;;7.20;99.90;;;;;;5073598;28;20534;-42
2023/05/01 00:34:19;;;;;;;4.82;2.05;;;7.20;99.90;;;;;;5074207;28;20086;-41
2023/05/01 00:36:45;;;;;;;4.33;2.07;;;7.20;99.90;;;;;;5073933;28;20048;-41
2023/05/01 00:39:11;;;;;;;3.70;1.70;;;7.20;99.90;;;;;;5073815;28;20047;-42
2023/05/01 00:41:36;;;;;;;6.73;2.40;;;7.20;99.90;;;;;;5073839;28;20515;-42
2023/05/01 00:44:02;;;;;;;7.97;2.20;;;7.10;99.90;;;;;;5073902;28;20044;-42
2023/05/01 00:46:29;;;;;;;6.30;2.37;;;7.10;99.90;;;;;;5074026;28;20544;-41
2023/05/01 00:48:57;;;;;;;4.53;1.88;;;7.10;99.90;;;;;;5073991;28;20082;-42
2023/05/01 00:51:23;;;;;;;5.82;2.10;;;7.10;99.90;;;;;;5073909;28;20044;-42
2023/05/01 00:53:49;;;;;;;5.22;2.20;;;7.10;99.90;;;;;;5072678;28;20056;-42
2023/05/01 00:56:16;;;;;;;5.30;2.17;;;7.10;99.90;;;;;;5073633;28;20121;-41
2023/05/01 00:58:42;;;;;;;5.80;2.10;;;7.10;99.90;;;;;;5074097;28;20097;-41
2023/05/01 01:01:08;;;;;;;5.18;2.33;;;7.20;99.90;;;;;;5073955;28;20044;-41
2023/05/01 01:03:34;;;;;;;4.80;1.70;;;7.30;99.90;;;;;;5073823;28;20041;-41
2023/05/01 01:06:20;;;;;;;5.25;2.20;;;7.30;99.90;;;;;;5073608;28;20052;-41
2023/05/01 01:09:12;;;;;;;5.85;2.25;;;7.30;99.90;;;;;;5072478;28;20510;-42
2023/05/01 01:11:50;;;;;;;5.70;1.90;;;7.30;99.90;;;;;;5051764;28;20048;-41
2023/05/01 01:14:46;;;;;;;4.90;2.00;;;7.40;99.90;;;;;;5073259;28;20060;-42
2023/05/01 01:17:36;;;;;;;6.38;2.13;;;7.40;99.90;;;;;;5070690;28;20060;-42
2023/05/01 01:20:30;;;;;;;5.63;1.83;;;7.40;99.90;;;;;;5073652;28;20044;-42
2023/05/01 01:23:35;;;;;;;5.55;2.45;;;7.40;99.90;;;;;;5072571;28;20517;-41
2023/05/01 01:26:22;;;;;;;5.35;2.10;;;7.30;99.90;;;;;;5072476;28;20535;-42
2023/05/01 01:29:31;;;;;;;5.00;1.95;;;7.30;99.90;;;;;;5073466;28;20491;-42
2023/05/01 01:32:11;;;;;;;5.35;2.50;;;7.30;99.90;;;;;;5073668;28;20372;-41
2023/05/01 01:35:09;;;;;;;5.07;2.08;;;7.20;99.90;;;;;;5072479;28;20056;-41
2023/05/01 01:37:35;;;;;;;6.05;2.22;;;7.20;99.90;;;;;;5072181;28;20143;-41
2023/05/01 01:40:12;;;;;;;5.73;2.17;;;7.10;99.90;;;;;;5072382;28;20088;-41
2023/05/01 01:43:13;;;;;;;5.22;2.05;;;7.10;99.90;;;;;;5075397;28;20048;-41
2023/05/01 01:45:42;;;;;;;5.40;2.17;;;7.00;99.90;;;;;;5071610;28;20135;-42
2023/05/01 01:48:13;;;;;;;6.10;2.88;;;7.00;99.90;;;;;;5077360;28;20402;-42
2023/05/01 01:50:41;;;;;;;7.88;2.33;;;7.00;99.90;;;;;;5077660;28;20049;-41
2023/05/01 01:53:10;;;;;;;4.68;2.40;;;6.90;99.90;;;;;;5076540;28;20441;-41
2023/05/01 01:55:39;;;;;;;5.85;2.10;;;6.90;99.90;;;;;;5077211;28;20123;-41
2023/05/01 01:58:07;;;;;;;5.45;2.20;;;6.90;99.90;;;;;;5077346;28;20491;-41
2023/05/01 02:00:34;;;;;;;6.57;2.47;;;6.80;99.90;;;;;;5076097;28;20051;-41
2023/05/01 02:03:01;;;;;;;;;;;6.80;99.90;;;;;;5076294;28;20503;-41
2023/05/01 02:05:27;;;;;;;5.55;1.98;;;6.80;99.90;;;;;;5076060;28;19922;-42
2023/05/01 02:07:54;;;;;;;6.25;2.58;;;6.80;99.90;;;;;;5077064;28;20052;-41
2023/05/01 02:10:21;;;;;;;5.40;2.28;;;6.80;99.90;;;;;;5059759;28;20084;-42
2023/05/01 02:12:50;;;;;;;7.07;2.85;;;6.70;99.90;;;;;;5076007;28;20453;-41
2023/05/01 02:15:17;;;;;;;6.15;2.08;;;6.70;99.90;;;;;;5076914;28;20048;-42
2023/05/01 02:17:44;;;;;;;5.68;2.08;;;6.70;99.90;;;;;;5075956;28;20071;-41
2023/05/01 02:20:11;;;;;;;6.55;2.30;;;6.70;99.90;;;;;;5075722;28;20084;-41
2023/05/01 02:22:41;;;;;;;4.50;2.00;;;6.60;99.90;;;;;;5075830;28;20093;-41
2023/05/01 02:25:12;;;;;;;6.68;2.60;;;6.70;99.90;;;;;;5075829;28;20088;-41
2023/05/01 02:27:43;;;;;;;6.10;2.00;;;6.60;99.90;;;;;;5059042;28;20092;-41
2023/05/01 02:30:10;;;;;;;5.60;2.10;;;6.70;99.90;;;;;;5076527;28;20095;-41
2023/05/01 02:32:36;;;;;;;5.55;2.13;;;6.60;99.90;;;;;;5075824;28;20471;-42
2023/05/01 02:35:02;;;;;;;5.50;2.07;;;6.70;99.90;;;;;;5075766;28;20083;-41
2023/05/01 02:37:29;;;;;;;4.93;2.10;;;6.60;99.90;;;;;;5059482;28;20078;-41
2023/05/01 02:39:55;;;;;;;7.15;2.30;;;6.60;99.90;;;;;;5075440;28;20059;-41
2023/05/01 02:42:23;;;;;;;5.65;2.20;;;6.60;99.90;;;;;;5076283;28;20095;-42
2023/05/01 02:45:19;;;;;;;5.78;2.47;;;6.60;99.90;;;;;;5076325;28;20052;-41
2023/05/01 02:47:50;;;;;;;5.35;2.30;;;6.60;99.90;;;;;;5071694;28;20052;-41
2023/05/01 02:50:16;;;;;;;6.18;2.28;;;6.60;99.90;;;;;;5076282;28;20099;-41
2023/05/01 02:52:43;;;;;;;6.93;2.70;;;6.60;99.90;;;;;;5076222;28;20040;-41
2023/05/01 02:55:09;;;;;;;6.20;2.60;;;6.50;99.90;;;;;;5074431;28;20060;-41
2023/05/01 02:57:35;;;;;;;6.33;2.10;;;6.60;99.90;;;;;;5076173;28;20057;-41
2023/05/01 03:00:01;;;;;;;7.17;2.60;;;6.50;99.90;;;;;;5075442;28;20056;-42
2023/05/01 03:02:26;;;;;;;5.93;2.53;;;6.50;99.90;;;;;;5076101;28;20135;-41
2023/05/01 03:04:52;;;;;;;6.63;2.27;;;6.50;99.90;;;;;;5074820;28;20044;-41
2023/05/01 03:07:17;;;;;;;5.80;2.20;;;6.40;99.90;;;;;;5075960;28;20040;-41
2023/05/01 03:09:43;;;;;;;8.87;2.67;;;6.40;99.90;;;;;;5074786;28;20048;-41
2023/05/01 03:12:09;;;;;;;5.80;2.27;;;6.40;99.90;;;;;;5075700;28;20079;-42
2023/05/01 03:14:34;;;;;;;4.70;2.30;;;6.40;99.90;;;;;;5075878;28;20053;-41
2023/05/01 03:17:00;;;;;;;5.20;2.10;;;6.40;99.90;;;;;;5074625;28;20040;-41
2023/05/01 03:19:26;;;;;;;5.67;2.37;;;6.40;99.90;;;;;;5075037;28;20045;-41
2023/05/01 03:21:51;;;;;;;5.63;2.53;;;6.30;99.90;;;;;;5058144;28;20049;-41
2023/05/01 03:24:17;;;;;;;6.37;3.13;;;6.30;99.90;;;;;;5075389;28;20044;-41
2023/05/01 03:26:43;;;;;;;6.30;2.43;;;6.30;99.90;;;;;;5075661;28;20080;-42
2023/05/01 03:29:09;;;;;;;5.53;2.20;;;6.20;99.90;;;;;;5074404;28;20094;-41
2023/05/01 03:31:34;;;;;;;5.90;2.50;;;6.20;99.90;;;;;;5075694;28;20048;-41
2023/05/01 03:34:00;;;;;;;4.97;2.27;;;6.20;99.90;;;;;;5075532;28;20052;-41
2023/05/01 03:36:27;;;;;;;4.87;2.37;;;6.20;99.90;;;;;;5075255;28;20094;-41
2023/05/01 03:38:52;;;;;;;6.32;2.67;;;6.20;99.90;;;;;;5075359;28;20051;-41
2023/05/01 03:41:18;;;;;;;7.03;2.40;;;6.20;99.90;;;;;;5075357;28;20048;-41
2023/05/01 03:43:44;;;;;;;6.37;2.47;;;6.20;99.90;;;;;;5074171;28;20052;-41
2023/05/01 03:46:09;;;;;;;6.20;2.30;;;6.20;99.90;;;;;;5075283;28;20503;-41
2023/05/01 03:48:35;;;;;;;6.27;2.40;;;6.10;99.90;;;;;;5074988;28;20044;-41
2023/05/01 03:51:01;;;;;;;6.43;2.50;;;6.10;99.90;;;;;;5075073;28;20052;-41
2023/05/01 03:53:26;;;;;;;4.80;2.23;;;6.10;99.90;;;;;;5073885;28;20048;-44
2023/05/01 03:55:52;;;;;;;5.83;2.43;;;6.10;99.90;;;;;;5074954;28;20100;-41
2023/05/01 03:58:17;;;;;;;5.43;2.30;;;6.10;99.90;;;;;;5075182;28;20403;-41
2023/05/01 04:00:43;;;;;;;7.00;2.97;;;6.00;99.90;;;;;;5073789;28;20052;-41
2023/05/01 04:03:09;;;;;;;5.90;2.47;;;6.00;99.90;;;;;;5074840;28;20048;-41
2023/05/01 04:05:35;;;;;;;5.93;2.90;;;6.00;99.90;;;;;;5073873;28;20446;-41
2023/05/01 04:08:00;;;;;;;6.40;2.73;;;5.90;99.90;;;;;;5073432;28;20070;-41
2023/05/01 04:10:26;;;;;;;5.57;2.77;;;5.90;99.90;;;;;;5073720;28;20076;-41
2023/05/01 04:12:52;;;;;;;6.57;3.10;;;5.90;99.90;;;;;;5074809;28;20574;-41
2023/05/01 04:15:17;;;;;;;6.40;2.37;;;5.90;99.90;;;;;;5074672;28;20051;-42
2023/05/01 04:17:43;;;;;;;7.53;2.90;;;5.80;99.90;;;;;;5073448;28;20399;-41
2023/05/01 04:20:09;;;;;;;7.87;2.80;;;5.80;99.90;;;;;;5074693;28;20124;-41
2023/05/01 04:22:36;;;;;;;5.93;2.33;;;5.80;99.90;;;;;;5090235;28;20341;-41
2023/05/01 04:25:03;;;;;;;6.45;2.80;;;5.80;99.90;;;;;;5074465;28;20097;-41
2023/05/01 04:27:29;;;;;;;5.85;2.50;;;5.90;99.90;;;;;;5073577;28;20095;-41
2023/05/01 04:29:56;;;;;;;5.80;2.73;;;5.90;99.90;;;;;;5073476;28;20460;-41
2023/05/01 04:32:21;;;;;;;6.38;2.50;;;5.90;99.90;;;;;;5073290;28;20487;-41
2023/05/01 04:34:47;;;;;;;8.77;3.30;;;5.90;99.90;;;;;;5073192;28;20063;-41
2023/05/01 04:37:13;;;;;;;8.33;2.80;;;5.90;99.90;;;;;;5074057;28;20045;-41
2023/05/01 04:39:39;;;;;;;6.47;2.60;;;5.90;99.90;;;;;;5074296;28;20097;-41
2023/05/01 04:42:05;;;;;;;8.70;3.15;;;5.90;99.90;;;;;;5073563;28;20174;-41
2023/05/01 04:44:33;;;;;;;6.17;2.83;;;6.00;99.90;;;;;;5072982;28;20174;-41
2023/05/01 04:47:02;;;;;;;7.10;2.85;;;6.00;99.90;;;;;;5073015;28;20124;-41
2023/05/01 04:49:28;;;;;;;5.60;2.63;;;6.10;99.90;;;;;;5072801;28;20045;-41
2023/05/01 04:51:54;;;;;;;5.27;2.60;;;6.10;99.90;;;;;;5072621;28;20052;-41
2023/05/01 04:54:19;;;;;;;7.63;2.90;;;6.10;99.90;;;;;;5074041;28;20044;-41
2023/05/01 04:56:45;;;;;;;6.67;2.73;;;6.20;99.90;;;;;;5072671;28;20465;-41
2023/05/01 04:59:11;;;;;;;6.73;2.50;;;6.20;99.90;;;;;;5073959;28;20048;-41
2023/05/01 05:01:36;;;;;;;6.63;2.53;;;6.30;99.90;;;;;;5073915;28;20044;-41
2023/05/01 05:04:02;;;;;;;5.90;2.40;;;6.30;99.90;;;;;;5072847;28;20040;-42
2023/05/01 05:06:28;;;;;;;5.40;2.23;;;6.40;99.90;;;;;;5073815;28;20127;-41
2023/05/01 05:08:54;;;;;;;5.53;2.50;;;6.50;99.90;;;;;;5073804;28;20036;-41
2023/05/01 05:11:20;;;;;;;4.90;2.20;;;6.50;99.90;;;;;;5072732;28;20114;-41
2023/05/01 05:13:46;;;;;;;6.83;2.83;;;6.60;99.90;;;;;;5072756;28;20051;-41
2023/05/01 05:16:13;;;;;;;6.03;2.83;;;6.70;99.90;;;;;;5072715;28;20510;-41
2023/05/01 05:18:38;;;;;;;7.43;2.67;;;6.70;99.90;;;;;;5073348;28;20044;-41
2023/05/01 05:21:05;;;;;;;6.60;2.63;;;6.80;99.90;;;;;;5072218;28;20147;-41
2023/05/01 05:23:31;;;;;;;7.20;3.10;;;6.80;99.90;;;;;;5055858;28;20052;-41
2023/05/01 05:26:00;;;;;;;8.17;3.13;;;6.80;99.90;;;;;;5072652;28;20051;-41
2023/05/01 05:28:27;;;;;;;6.45;2.90;;;6.90;99.90;;;;;;5073533;28;20094;-41
2023/05/01 05:30:53;;;;;;;8.77;3.25;;;6.90;99.90;;;;;;5073555;28;20048;-41
2023/05/01 05:33:19;;;;;;;7.63;3.25;;;7.00;99.90;;;;;;5073480;28;20040;-43
2023/05/01 05:35:44;;;;;;;8.10;3.07;;;7.00;99.90;;;;;;5073206;28;20049;-42
2023/05/01 05:38:10;;;;;;;8.43;2.90;;;7.10;99.90;;;;;;5055624;28;20045;-42
2023/05/01 05:40:36;;;;;;;8.30;3.47;;;7.20;99.90;;;;;;5072347;28;20049;-42
2023/05/01 05:43:01;;;;;;;7.53;2.83;;;7.30;99.90;;;;;;5072434;28;20055;-42
2023/05/01 05:45:28;;;;;;;7.93;3.30;;;7.40;99.90;;;;;;5072240;28;20373;-42
2023/05/01 05:47:53;;;;;;;7.13;2.92;;;7.40;99.90;;;;;;5072195;28;20056;-42
2023/05/01 05:50:19;;;;;;;8.33;3.40;;;7.50;99.90;;;;;;5055445;28;20048;-42
2023/05/01 05:52:45;;;;;;;7.17;3.20;;;7.60;99.90;;;;;;5073389;28;20048;-42
2023/05/01 05:55:10;;;;;;;7.03;2.83;;;7.70;99.90;;;;;;5072176;28;20052;-42
2023/05/01 05:57:36;;;;;;;6.87;3.20;;;7.70;99.90;;;;;;5072330;28;20110;-42
2023/05/01 06:00:06;;;;;;;7.43;2.90;;;7.80;99.90;;;;;;5073432;28;20059;-42
2023/05/01 06:02:32;;;;;;;6.82;3.15;;;7.80;99.90;;;;;;5072981;28;20275;-42
2023/05/01 06:04:58;;;;;;;8.90;3.50;;;7.80;99.90;;;;;;5073493;28;20051;-42
2023/05/01 06:07:24;;;;;;;7.63;3.28;;;7.90;99.90;;;;;;5072212;28;20045;-42
2023/05/01 06:09:50;;;;;;;7.65;3.92;;;8.00;99.90;;;;;;5072108;28;20044;-42
2023/05/01 06:12:16;;;;;;;6.90;3.22;;;8.10;99.90;;;;;;5073023;28;20052;-42
2023/05/01 06:14:42;;;;;;;6.20;2.77;;;8.30;99.90;;;;;;5072198;28;20494;-42
2023/05/01 06:17:07;;;;;;;6.73;2.93;;;8.40;99.90;;;;;;5072003;28;20459;-42
2023/05/01 06:19:34;;;;;;;6.53;2.97;;;8.50;99.90;;;;;;5071843;28;20098;-43
2023/05/01 06:22:00;;;;;;;7.90;3.17;;;8.70;99.90;;;;;;5088889;28;20053;-42
2023/05/01 06:24:26;;;;;;;8.53;3.23;;;8.80;99.90;;;;;;5038458;28;20044;-42
2023/05/01 06:26:52;;;;;;;8.27;3.23;;;9.10;99.90;;;;;;5072128;28;20047;-42
2023/05/01 06:29:18;;;;;;;9.05;3.35;;;9.50;99.90;;;;;;5056036;28;20044;-42
2023/05/01 06:31:43;;;;;;;9.00;3.53;;;10.00;99.90;;;;;;5058896;28;20399;-42
2023/05/01 06:34:09;;;;;;;6.23;3.10;;;10.30;99.90;;;;;;5076369;28;20097;-42
2023/05/01 06:36:35;;;;;;;7.40;3.27;;;10.50;99.90;;;;;;5076544;28;20055;-42
2023/05/01 06:39:00;;;;;;;8.63;3.63;;;10.70;99.90;;;;;;5075278;28;20059;-42
2023/05/01 06:41:26;;;;;;;6.37;3.10;;;10.80;99.90;;;;;;5058839;28;20430;-42
2023/05/01 06:43:52;;;;;;;6.07;2.97;;;10.80;99.90;;;;;;5075349;28;20439;-42
2023/05/01 06:46:17;;;;;;;6.87;2.87;;;10.70;99.90;;;;;;5075416;28;20091;-42
2023/05/01 06:48:43;;;;;;;8.40;3.73;;;10.50;99.90;;;;;;5076115;28;20414;-42
2023/05/01 06:51:09;;;;;;;7.83;3.43;;;10.40;99.90;;;;;;5076391;28;20106;-42
2023/05/01 06:53:35;;;;;;;8.37;3.83;;;10.30;99.90;;;;;;5075096;28;20048;-42
2023/05/01 06:56:01;;;;;;;7.45;3.33;;;10.30;99.90;;;;;;5074764;28;20106;-42
2023/05/01 06:58:27;;;;;;;8.07;3.70;;;10.30;99.90;;;;;;5074972;28;20052;-42
2023/05/01 07:00:53;;;;;;;9.03;3.10;;;10.50;99.90;;;;;;5076097;28;20044;-42
2023/05/01 07:03:18;;;;;;;8.73;3.58;;;10.60;99.90;;;;;;5075905;28;20404;-42
2023/05/01 07:05:44;;;;;;;7.17;3.67;;;10.90;99.90;;;;;;5075898;28;20053;-42
2023/05/01 07:08:10;;;;;;;9.10;3.30;;;11.00;99.90;;;;;;5075856;28;20127;-42
2023/05/01 07:10:35;;;;;;;7.87;3.30;;;11.10;99.90;;;;;;5075173;28;20044;-42
2023/05/01 07:13:01;;;;;;;10.40;3.93;;;11.20;99.90;;;;;;5075071;28;20052;-42
2023/05/01 07:15:27;;;;;;;8.07;3.13;;;11.40;99.90;;;;;;5074672;28;20057;-42
2023/05/01 07:17:52;;;;;;;7.93;3.47;;;11.50;99.90;;;;;;5075493;28;20044;-42
2023/05/01 07:20:18;;;;;;;6.37;3.00;;;11.60;99.90;;;;;;5075926;28;20135;-41
2023/05/01 07:22:44;;;;;;;6.47;3.37;;;11.80;99.90;;;;;;5075996;28;20483;-42
2023/05/01 07:25:09;;;;;;;6.93;3.13;;;11.90;99.90;;;;;;5075723;28;20041;-41
2023/05/01 07:27:35;;;;;;;7.47;3.27;;;12.10;99.90;;;;;;5074764;28;20056;-41
2023/05/01 07:30:03;;;;;;;8.13;3.50;;;12.10;99.90;;;;;;5075520;28;20131;-41
2023/05/01 07:32:30;;;;;;;6.50;3.03;;;12.10;99.90;;;;;;5074169;28;20059;-41
2023/05/01 07:34:57;;;;;;;8.05;3.33;;;12.10;99.90;;;;;;5074403;28;20084;-41
2023/05/01 07:37:23;;;;;;;;;;;12.00;99.90;;;;;;5075768;28;20048;-41
2023/05/01 07:39:48;;;;;;;6.15;2.85;;;12.00;99.90;;;;;;5074219;28;19920;-41
2023/05/01 07:42:14;;;;;;;6.17;3.07;;;11.90;99.90;;;;;;5075482;28;20055;-41
2023/05/01 07:44:40;;;;;;;7.10;3.23;;;11.90;99.90;;;;;;5074093;28;20043;-41
2023/05/01 07:47:06;;;;;;;7.67;3.33;;;11.90;99.90;;;;;;5073748;28;20098;-41
2023/05/01 07:49:37;;;;;;;;;;;12.00;99.90;;;;;;5074464;28;20446;-41
2023/05/01 07:52:03;;;;;;;7.82;3.22;;;12.00;99.90;;;;;;5074636;28;19974;-42
2023/05/01 07:54:28;;;;;;;7.47;2.78;;;12.00;99.90;;;;;;5074029;28;20079;-42
2023/05/01 07:56:55;;;;;;;6.63;2.70;;;12.10;99.90;;;;;;5074934;28;20509;-41
2023/05/01 07:59:20;;;;;;;6.20;2.67;;;12.10;99.90;;;;;;5073865;28;20384;-41
2023/05/01 08:01:46;;;;;;;7.10;3.00;;;12.20;99.90;;;;;;5073795;28;20052;-41
2023/05/01 08:04:13;;;;;;;7.87;3.37;;;12.30;99.90;;;;;;5073813;28;20475;-41
2023/05/01 08:06:39;;;;;;;6.65;3.25;;;12.40;99.90;;;;;;5074846;28;20044;-41
2023/05/01 08:09:04;;;;;;;6.53;2.88;;;12.50;99.90;;;;;;5073656;28;20048;-41
2023/05/01 08:11:32;;;;;;;10.77;3.47;;;12.60;99.90;;;;;;5073426;28;20055;-40
2023/05/01 08:13:58;;;;;;;7.90;2.92;;;12.70;99.90;;;;;;5074492;28;20286;-41
2023/05/01 08:16:23;;;;;;;8.80;2.90;;;12.80;99.90;;;;;;5074468;28;20052;-41
2023/05/01 08:18:49;;;;;;;6.67;2.83;;;12.80;99.90;;;;;;5073653;28;20337;-41
2023/05/01 08:21:15;;;;;;;6.93;2.97;;;12.90;99.90;;;;;;5073554;28;20301;-41
2023/05/01 08:23:41;;;;;;;8.65;2.45;;;12.90;99.90;;;;;;5073447;28;20048;-41
2023/05/01 08:26:06;;;;;;;4.97;2.13;;;12.90;99.90;;;;;;5073479;28;20522;-41
2023/05/01 08:28:34;;;;;;;5.27;2.37;;;12.90;99.90;;;;;;5074273;28;20446;-42
2023/05/01 08:30:59;;;;;;;7.25;2.25;;;13.00;99.90;;;;;;5073072;28;20052;-41
2023/05/01 08:33:25;;;;;;;5.57;2.37;;;13.00;99.90;;;;;;5074307;28;20131;-41
2023/05/01 08:35:51;;;;;;;6.25;1.58;;;13.00;99.90;;;;;;5074315;28;20064;-44
2023/05/01 08:38:17;;;;;;;5.85;2.28;;;13.10;99.90;;;;;;5073278;28;20060;-41
2023/05/01 08:40:50;;;;;;;5.37;2.23;;;13.10;99.90;;;;;;5074168;28;20484;-41
2023/05/01 08:43:16;;;;;;;8.75;2.80;;;13.10;99.90;;;;;;5073996;28;20049;-41
2023/05/01 08:45:43;;;;;;;;;;;13.10;99.90;;;;;;5074485;28;20055;-41
2023/05/01 08:48:11;;;;;;;5.82;2.08;;;13.20;99.90;;;;;;5074023;28;19924;-41
2023/05/01 08:50:38;;;;;;;5.45;2.35;;;13.20;99.90;;;;;;5074062;28;20047;-41
2023/05/01 08:53:05;;;;;;;6.65;2.40;;;13.30;99.90;;;;;;5072489;28;20048;-41
2023/05/01 08:55:33;;;;;;;6.40;2.58;;;13.30;99.90;;;;;;5074039;28;20084;-41
2023/05/01 08:58:01;;;;;;;5.35;2.30;;;13.40;99.90;;;;;;5073701;28;20110;-41
2023/05/01 09:00:28;;;;;;;5.28;2.13;;;13.60;99.90;;;;;;5072846;28;20053;-41
2023/05/01 09:02:55;;;;;;;4.55;1.83;;;13.60;99.90;;;;;;5073757;28;20399;-41
2023/05/01 09:05:20;;;;;;;;;;;13.60;99.90;;;;;;5074297;28;20055;-41
2023/05/01 09:07:47;;;;;;;5.97;2.60;;;13.60;99.90;;;;;;5072818;28;19920;-41
2023/05/01 09:10:15;;;;;;;5.72;2.40;;;13.70;99.90;;;;;;5072584;28;20045;-41
2023/05/01 09:12:44;;;;;;;4.85;1.90;;;13.80;99.90;;;;;;5073634;28;20446;-41
2023/05/01 09:15:11;;;;;;;7.40;1.90;;;13.80;99.90;;;;;;5074148;28;20044;-41
2023/05/01 09:17:37;;;;;;;4.53;1.67;;;13.80;99.90;;;;;;5072737;28;20483;-41
2023/05/01 09:20:05;;;;;;;5.38;2.05;;;13.90;99.90;;;;;;5073711;28;20496;-41
2023/05/01 09:22:31;;;;;;;6.50;1.98;;;13.90;99.90;;;;;;5072501;28;20052;-41
2023/05/01 09:24:58;;;;;;;4.38;1.60;;;13.90;99.90;;;;;;5073610;28;20041;-41
2023/05/01 09:27:25;;;;;;;5.22;1.77;;;13.90;99.90;;;;;;5073749;28;20435;-41
2023/05/01 09:29:51;;;;;;;5.07;1.80;;;14.00;99.90;;;;;;5073626;28;20041;-41
2023/05/01 09:32:23;;;;;;;4.83;2.00;;;14.10;99.90;;;;;;5073568;28;20052;-41
2023/05/01 09:34:54;;;;;;;4.03;1.70;;;14.20;99.90;;;;;;5072739;28;20105;-41
2023/05/01 09:37:32;;;;;;;6.25;1.75;;;14.20;99.90;;;;;;5073364;28;20051;-41
2023/05/01 09:40:05;;;;;;;4.18;1.75;;;14.30;99.90;;;;;;5073582;28;20056;-41
2023/05/01 09:42:32;;;;;;;4.50;1.75;;;14.40;99.90;;;;;;5072476;28;20052;-41
2023/05/01 09:45:04;;;;;;;5.03;1.58;;;14.50;99.90;;;;;;5072214;28;20048;-41
2023/05/01 09:47:29;;;;;;;5.43;1.60;;;14.50;99.90;;;;;;5073432;28;20492;-41
2023/05/01 09:49:56;;;;;;;6.67;1.93;;;14.50;99.90;;;;;;5072316;28;20059;-41
2023/05/01 09:52:29;;;;;;;3.38;1.45;;;14.60;99.90;;;;;;5073652;28;20385;-42
2023/05/01 09:55:17;;;;;;;4.38;1.55;;;14.60;99.90;;;;;;5073408;28;20052;-42
2023/05/01 09:57:45;;;;;;;3.63;1.42;;;14.70;99.90;;;;;;5073333;28;20495;-41
2023/05/01 10:00:15;;;;;;;4.60;1.63;;;14.70;99.90;;;;;;5072284;28;20048;-41
2023/05/01 10:02:46;;;;;;;4.63;1.50;;;14.80;99.90;;;;;;5072277;28;20498;-41
2023/05/01 10:05:12;;;;;;;4.40;1.45;;;14.80;99.90;;;;;;5074522;28;20044;-41
2023/05/01 10:07:38;;;;;;;5.22;1.75;;;14.90;99.90;;;;;;5076046;28;20098;-41
2023/05/01 10:10:17;;;;;;;4.10;1.45;;;15.00;99.90;;;;;;5077317;28;20092;-41
2023/05/01 10:12:42;;;;;;;4.53;1.58;;;15.10;99.90;;;;;;5077036;28;20399;-41
2023/05/01 10:15:09;;;;;;;5.32;1.33;;;15.20;99.90;;;;;;5076880;28;20045;-42
2023/05/01 10:17:36;;;;;;;4.18;1.48;;;15.30;99.90;;;;;;5076998;28;20046;-41
2023/05/01 10:20:02;;;;;;;3.20;1.40;;;15.40;99.90;;;;;;5076648;28;20495;-41
2023/05/01 10:22:27;;;;;;;3.58;1.60;;;15.40;99.90;;;;;;5075973;28;20127;-41
2023/05/01 10:24:53;;;;;;;4.97;1.50;;;15.50;99.90;;;;;;5076636;28;20047;-41
2023/05/01 10:27:21;;;;;;;3.65;1.42;;;15.60;99.90;;;;;;5076715;28;20059;-41
2023/05/01 10:29:51;;;;;;;4.43;1.80;;;15.70;99.90;;;;;;5075462;28;20119;-41
2023/05/01 10:32:17;;;;;;;3.63;1.58;;;15.80;99.90;;;;;;5076649;28;20127;-41
2023/05/01 10:34:47;;;;;;;6.22;1.35;;;15.90;99.90;;;;;;5076645;28;20044;-41
2023/05/01 10:37:36;;;;;;;3.05;1.33;;;15.90;99.90;;;;;;5076669;28;20055;-41
2023/05/01 10:40:47;;;;;;;3.17;1.30;;;16.00;99.90;;;;;;5075990;28;20147;-42
2023/05/01 10:43:29;;;;;;;3.65;1.10;;;16.10;99.90;;;;;;5073271;28;20056;-41
2023/05/01 10:46:20;;;;;;;2.90;1.20;;;16.30;99.90;;;;;;5075529;28;20048;-41
2023/05/01 10:48:45;;;;;;;3.90;1.15;;;16.40;99.90;;;;;;5075627;28;20044;-41
2023/05/01 10:51:20;;;;;;;3.20;1.17;;;16.50;99.90;;;;;;5076337;28;20044;-41
2023/05/01 10:53:47;;;;;;;2.55;0.90;;;16.50;99.90;;;;;;5076187;28;20382;-41
2023/05/01 10:56:31;;;;;;;2.38;0.90;;;16.70;99.90;;;;;;5076154;28;20167;-41
2023/05/01 10:58:58;;;;;;;2.10;0.70;;;16.80;99.90;;;;;;5075961;28;20048;-41
2023/05/01 11:01:41;;;;;;;1.80;0.85;;;16.90;99.90;;;;;;5076222;28;20052;-41
2023/05/01 11:04:27;;;;;;;2.75;0.82;;;17.00;99.90;;;;;;5076022;28;20044;-41
2023/05/01 11:07:03;;;;;;;3.65;1.55;;;17.10;99.90;;;;;;5075978;28;20136;-42
2023/05/01 11:09:40;;;;;;;3.40;0.80;;;17.20;99.90;;;;;;5076012;28;20056;-42
2023/05/01 11:12:07;;;;;;;3.30;1.30;;;17.20;99.90;;;;;;5058275;28;20097;-42
2023/05/01 11:15:02;;;;;;;2.13;0.90;;;17.30;99.90;;;;;;5075561;28;20432;-41
2023/05/01 11:17:40;;;;;;;2.20;0.80;;;17.30;99.90;;;;;;5075839;28;20502;-41
2023/05/01 11:20:06;;;;;;;3.15;0.95;;;17.40;99.90;;;;;;5076022;28;20107;-41
2023/05/01 11:22:33;;;;;;;2.45;0.82;;;17.40;99.90;;;;;;5074982;28;20092;-41
2023/05/01 11:25:00;;;;;;;3.88;1.10;;;17.40;99.90;;;;;;5074695;28;20391;-41
2023/05/01 11:27:26;;;;;;;2.80;1.10;;;17.50;99.90;;;;;;5058035;28;20095;-41
2023/05/01 11:29:52;;;;;;;3.60;1.30;;;17.50;99.90;;;;;;5075680;28;20079;-41
2023/05/01 11:32:26;;;;;;;2.40;0.90;;;17.50;99.90;;;;;;5074389;28;20127;-41
2023/05/01 11:34:52;;;;;;;4.10;1.30;;;17.50;99.90;;;;;;5075592;28;20119;-41
2023/05/01 11:37:19;;;;;;;1.67;0.70;;;17.60;99.90;;;;;;5074714;28;20442;-41
2023/05/01 11:39:52;;;;;;;5.15;1.90;;;17.60;99.90;;;;;;5074702;28;20045;-41
2023/05/01 11:42:21;;;;;;;4.10;1.40;;;17.70;99.90;;;;;;5075347;28;20055;-42
2023/05/01 11:45:12;;;;;;;3.42;1.00;;;17.80;99.90;;;;;;5074053;28;20044;-41
2023/05/01 11:47:38;;;;;;;3.75;1.25;;;18.00;99.90;;;;;;5091548;28;20051;-42
2023/05/01 11:50:07;;;;;;;;;;;18.10;99.90;;;;;;5058017;28;20048;-42
2023/05/01 11:52:44;;;;;;;3.00;1.13;;;18.20;99.60;;;;;;5074177;28;19920;-41
2023/05/01 11:55:11;;;;;;;4.03;1.27;;;18.30;99.90;;;;;;5074728;28;20060;-42
2023/05/01 11:57:52;;;;;;;2.20;0.60;;;18.40;99.90;;;;;;5074501;28;20049;-41
2023/05/01 12:00:37;;;;;;;1.42;0.70;;;18.40;99.90;;;;;;5074152;28;20084;-39
2023/05/01 12:03:07;;;;;;;2.65;0.80;;;18.50;98.60;;;;;;5074864;28;20044;-39
2023/05/01 12:05:35;;;;;;;1.63;0.60;;;18.50;99.90;;;;;;5074785;28;20399;-40
2023/05/01 12:08:22;;;;;;;2.28;0.50;;;18.50;99.80;;;;;;5074621;28;20044;-41
2023/05/01 12:10:54;;;;;;;1.80;0.50;;;18.50;99.50;;;;;;5074807;28;20092;-42
2023/05/01 12:13:21;;;;;;;1.80;0.40;;;18.50;99.90;;;;;;5074635;28;20047;-42
2023/05/01 12:15:51;;;;;;;;;;;18.50;99.60;;;;;;5057534;28;20084;-39
2023/05/01 12:18:17;;;;;;;0.75;0.40;;;18.60;95.90;;;;;;5074477;28;19920;-42
2023/05/01 12:20:43;;;;;;;1.80;0.70;;;18.60;98.40;;;;;;5074660;28;20091;-39
2023/05/01 12:23:14;;;;;;;1.85;0.80;;;18.50;98.70;;;;;;5073366;28;20076;-41
2023/05/01 12:25:41;;;;;;;1.58;0.50;;;18.50;97.70;;;;;;5074497;28;20042;-42
2023/05/01 12:28:19;;;;;;;2.47;0.60;;;18.50;98.40;;;;;;5073571;28;20158;-41
2023/05/01 12:30:48;;;;;;;1.10;0.50;;;18.50;97.10;;;;;;5074365;28;20087;-40
2023/05/01 12:33:15;;;;;;;2.47;0.65;;;18.40;98.10;;;;;;5073121;28;20131;-39
2023/05/01 12:35:45;;;;;;;1.65;0.50;;;18.40;97.80;;;;;;5074621;28;20107;-42
2023/05/01 12:38:21;;;;;;;1.13;0.50;;;18.30;97.00;;;;;;5073214;28;20525;-42
2023/05/01 12:40:55;;;;;;;2.03;0.60;;;18.20;95.80;;;;;;5074086;28;20077;-40
2023/05/01 12:43:35;;;;;;;2.30;0.40;;;18.20;96.10;;;;;;5072995;28;20053;-42
2023/05/01 12:46:02;;;;;;;1.42;0.60;;;18.10;95.70;;;;;;5073171;28;20045;-39
2023/05/01 12:48:29;;;;;;;4.15;0.93;;;18.00;96.30;;;;;;5074115;28;20102;-41
2023/05/01 12:50:55;;;;;;;3.47;0.50;;;17.90;96.70;;;;;;5073968;28;20044;-40
2023/05/01 12:53:23;;;;;;;3.15;0.70;;;17.80;96.80;;;;;;5074031;28;20389;-41
2023/05/01 12:55:55;;;;;;;2.33;0.65;;;17.90;97.30;;;;;;5073997;28;20052;-41
2023/05/01 12:58:21;;;;;;;3.35;0.90;;;17.90;97.50;;;;;;5073971;28;20063;-41
2023/05/01 13:00:52;;;;;;;1.48;0.70;;;18.00;97.20;;;;;;5074188;28;20048;-42